Time;durP1;ratioP1;P1;durP2;ratioP2;P2;SDS_P1;SDS_P2;PMS_P1;PMS_P2;Temp;Humidity;BMP_temperature;BMP_pressure;BME280_temperature;BME280_humidity;BME280_pressure;Samples;Min_cycle;Max_cycle;Signal;HPM_P1;HPM_P2
2023/09/07 00:00:53;;;;;;;7.82;6.28;;;23.40;52.70;;;;;;5084165;28;20230;-27
2023/09/07 00:03:23;;;;;;;6.80;6.10;;;23.30;52.70;;;;;;5049482;28;20206;-26
2023/09/07 00:05:50;;;;;;;9.27;6.40;;;23.30;52.80;;;;;;5075397;28;20199;-27
2023/09/07 00:08:17;;;;;;;7.50;6.50;;;23.30;52.90;;;;;;5063629;28;20260;-27
2023/09/07 00:10:47;;;;;;;8.48;6.70;;;23.20;52.80;;;;;;5073916;28;20190;-27
2023/09/07 00:13:14;;;;;;;7.97;6.03;;;23.20;52.90;;;;;;5064236;28;20209;-27
2023/09/07 00:15:41;;;;;;;8.05;6.60;;;23.20;53.00;;;;;;5080702;28;20217;-27
2023/09/07 00:18:11;;;;;;;10.60;7.15;;;23.10;52.90;;;;;;5086191;28;20198;-27
2023/09/07 00:20:38;;;;;;;11.07;6.65;;;23.10;53.60;;;;;;5083889;28;20198;-27
2023/09/07 00:23:06;;;;;;;9.45;6.65;;;23.00;53.00;;;;;;5083940;28;20245;-27
2023/09/07 00:25:33;;;;;;;8.70;7.25;;;23.00;53.00;;;;;;5076918;28;20692;-27
2023/09/07 00:28:00;;;;;;;9.05;6.43;;;23.00;53.10;;;;;;5085742;28;20199;-27
2023/09/07 00:30:27;;;;;;;9.18;6.97;;;23.00;53.10;;;;;;5083800;28;20213;-26
2023/09/07 00:32:54;;;;;;;10.20;7.05;;;22.90;53.10;;;;;;5080523;28;20199;-26
2023/09/07 00:35:24;;;;;;;9.43;7.13;;;22.90;53.20;;;;;;5048435;28;20219;-27
2023/09/07 00:37:54;;;;;;;12.20;6.68;;;22.90;53.20;;;;;;5068924;28;20207;-26
2023/09/07 00:40:22;;;;;;;10.23;6.93;;;22.80;53.20;;;;;;5068371;28;20234;-27
2023/09/07 00:42:49;;;;;;;7.60;6.50;;;22.80;53.30;;;;;;5044377;28;20241;-27
2023/09/07 00:45:16;;;;;;;9.63;7.47;;;22.70;53.30;;;;;;5066663;28;20309;-27
2023/09/07 00:47:47;;;;;;;9.10;7.15;;;22.70;53.30;;;;;;5083054;28;20202;-27
2023/09/07 00:50:16;;;;;;;8.27;6.80;;;22.70;53.40;;;;;;5067724;28;20237;-26
2023/09/07 00:52:47;;;;;;;10.73;7.18;;;22.60;53.50;;;;;;5062098;28;20234;-26
2023/09/07 00:55:14;;;;;;;7.65;6.53;;;22.60;53.70;;;;;;5065692;28;20212;-27
2023/09/07 00:57:44;;;;;;;9.55;7.00;;;22.60;53.50;;;;;;5068141;28;20199;-26
2023/09/07 01:00:15;;;;;;;8.27;6.63;;;22.50;53.50;;;;;;5071402;28;20256;-26
2023/09/07 01:02:44;;;;;;;9.23;7.03;;;22.50;53.50;;;;;;5069581;28;20334;-27
2023/09/07 01:05:17;;;;;;;12.27;7.40;;;22.50;53.60;;;;;;5043471;28;20385;-27
2023/09/07 01:07:53;;;;;;;11.38;7.35;;;22.40;53.70;;;;;;5040416;28;20541;-27
2023/09/07 01:10:22;;;;;;;12.13;7.40;;;22.40;53.70;;;;;;5049884;28;20684;-27
2023/09/07 01:12:49;;;;;;;8.40;7.57;;;22.40;53.70;;;;;;5083792;28;20222;-28
2023/09/07 01:15:17;;;;;;;11.73;7.63;;;22.40;53.80;;;;;;5078024;28;20195;-27
2023/09/07 01:17:45;;;;;;;11.82;7.47;;;22.30;53.80;;;;;;5083175;28;20740;-27
2023/09/07 01:20:20;;;;;;;8.23;7.05;;;22.30;53.90;;;;;;5083758;28;20202;-27
2023/09/07 01:22:47;;;;;;;10.48;7.65;;;22.30;53.90;;;;;;5080009;28;20724;-27
2023/09/07 01:25:15;;;;;;;9.60;7.90;;;22.20;53.90;;;;;;5062834;28;20313;-27
2023/09/07 01:27:49;;;;;;;10.68;7.43;;;22.20;53.90;;;;;;5049178;28;20211;-27
2023/09/07 01:30:17;;;;;;;9.65;7.65;;;22.20;54.00;;;;;;5086208;28;20214;-26
2023/09/07 01:32:45;;;;;;;11.80;7.53;;;22.20;54.00;;;;;;5067759;28;20207;-26
2023/09/07 01:35:14;;;;;;;9.07;7.45;;;22.10;54.10;;;;;;5087054;28;20576;-27
2023/09/07 01:37:44;;;;;;;10.35;7.57;;;22.20;54.20;;;;;;5063180;28;20253;-27
2023/09/07 01:40:11;;;;;;;14.15;7.72;;;22.10;54.10;;;;;;5082189;28;20275;-27
2023/09/07 01:42:41;;;;;;;9.95;7.50;;;22.10;54.20;;;;;;5068892;28;20268;-27
2023/09/07 01:45:11;;;;;;;9.57;7.80;;;22.10;54.30;;;;;;5089245;28;20307;-27
2023/09/07 01:47:38;;;;;;;9.30;8.30;;;22.00;54.20;;;;;;5071318;28;20224;-27
2023/09/07 01:50:08;;;;;;;12.73;7.78;;;22.00;54.20;;;;;;5069457;28;20192;-26
2023/09/07 01:52:35;;;;;;;9.93;8.13;;;22.00;54.30;;;;;;5063239;28;20261;-26
2023/09/07 01:55:04;;;;;;;9.65;8.48;;;21.90;54.30;;;;;;5088583;28;20222;-27
2023/09/07 01:57:31;;;;;;;10.88;7.93;;;21.90;54.30;;;;;;5087153;28;20223;-26
2023/09/07 02:00:01;;;;;;;11.40;7.95;;;21.90;54.30;;;;;;5085385;28;20207;-26
2023/09/07 02:02:33;;;;;;;10.23;7.63;;;21.80;54.30;;;;;;5065345;28;20227;-26
2023/09/07 02:05:00;;;;;;;9.90;8.02;;;21.80;54.40;;;;;;5071001;28;20213;-26
2023/09/07 02:07:32;;;;;;;10.95;8.07;;;21.80;54.50;;;;;;5086810;28;20195;-26
2023/09/07 02:10:03;;;;;;;9.20;8.20;;;21.70;54.40;;;;;;5064645;28;20205;-26
2023/09/07 02:12:30;;;;;;;15.82;8.10;;;21.70;54.40;;;;;;5068752;28;20221;-26
2023/09/07 02:15:00;;;;;;;11.77;8.45;;;21.70;54.50;;;;;;5087618;28;20844;-26
2023/09/07 02:17:32;;;;;;;13.77;8.50;;;21.70;54.60;;;;;;5067012;28;20578;-26
2023/09/07 02:20:08;;;;;;;10.63;8.18;;;21.60;54.60;;;;;;5086344;28;20592;-26
2023/09/07 02:22:36;;;;;;;11.18;8.65;;;21.60;54.60;;;;;;5084596;28;20222;-26
2023/09/07 02:25:06;;;;;;;9.30;8.05;;;21.60;54.70;;;;;;5085129;28;20229;-26
2023/09/07 02:27:36;;;;;;;11.85;8.10;;;21.50;54.60;;;;;;5068415;28;20252;-26
2023/09/07 02:30:04;;;;;;;10.82;8.35;;;21.50;54.70;;;;;;5087591;28;20282;-26
2023/09/07 02:32:34;;;;;;;9.00;8.05;;;21.50;54.80;;;;;;5051368;28;20203;-26
2023/09/07 02:35:01;;;;;;;9.75;7.80;;;21.50;54.80;;;;;;5054480;28;20210;-26
2023/09/07 02:37:31;;;;;;;10.35;8.32;;;21.40;54.90;;;;;;5064036;28;20294;-26
2023/09/07 02:39:58;;;;;;;10.32;7.47;;;21.40;54.90;;;;;;5049878;28;20200;-26
2023/09/07 02:42:25;;;;;;;9.70;7.97;;;21.40;54.90;;;;;;5063912;28;20277;-26
2023/09/07 02:44:53;;;;;;;11.15;8.43;;;21.30;54.90;;;;;;5053190;28;20217;-26
2023/09/07 02:47:21;;;;;;;10.95;8.38;;;21.30;54.90;;;;;;5085188;28;20195;-26
2023/09/07 02:49:48;;;;;;;14.40;8.70;;;21.30;55.00;;;;;;5051954;28;20278;-26
2023/09/07 02:52:15;;;;;;;9.70;8.45;;;21.20;55.00;;;;;;5063103;28;20298;-26
2023/09/07 02:54:46;;;;;;;12.48;8.55;;;21.20;55.00;;;;;;5049309;28;20256;-27
2023/09/07 02:57:15;;;;;;;11.82;8.63;;;21.20;55.00;;;;;;5060035;28;20200;-26
2023/09/07 02:59:42;;;;;;;10.18;8.05;;;21.10;55.00;;;;;;5062085;28;20210;-26
2023/09/07 03:02:14;;;;;;;14.68;8.18;;;21.10;55.10;;;;;;5057972;28;20317;-26
2023/09/07 03:04:43;;;;;;;10.98;8.35;;;21.10;55.10;;;;;;5080739;28;20246;-26
2023/09/07 03:07:11;;;;;;;10.27;8.60;;;21.10;55.20;;;;;;5047107;28;20214;-26
2023/09/07 03:09:38;;;;;;;10.88;8.45;;;21.00;55.10;;;;;;5063957;28;20206;-27
2023/09/07 03:12:05;;;;;;;11.88;9.07;;;21.00;55.20;;;;;;5076651;28;20286;-27
2023/09/07 03:14:32;;;;;;;11.35;8.50;;;21.00;55.20;;;;;;5084578;28;20685;-26
2023/09/07 03:17:00;;;;;;;11.38;8.93;;;20.90;55.30;;;;;;5085842;28;20199;-26
2023/09/07 03:19:30;;;;;;;13.40;8.38;;;20.90;55.30;;;;;;5050550;28;20199;-26
2023/09/07 03:21:59;;;;;;;10.85;9.10;;;20.90;55.40;;;;;;5082761;28;20336;-30
2023/09/07 03:24:28;;;;;;;10.32;8.73;;;20.90;55.40;;;;;;5077600;28;20195;-30
2023/09/07 03:26:55;;;;;;;20.33;9.75;;;20.90;55.50;;;;;;5068018;28;20786;-30
2023/09/07 03:29:24;;;;;;;10.48;8.43;;;20.80;55.50;;;;;;5049958;28;20199;-30
2023/09/07 03:31:54;;;;;;;11.77;9.05;;;20.80;55.50;;;;;;5077952;28;20333;-30
2023/09/07 03:34:24;;;;;;;11.93;9.45;;;20.80;55.50;;;;;;5087548;28;20616;-31
2023/09/07 03:36:57;;;;;;;9.90;8.90;;;20.80;55.60;;;;;;5055838;28;20249;-30
2023/09/07 03:39:24;;;;;;;12.23;9.55;;;20.80;55.60;;;;;;5085760;28;20241;-30
2023/09/07 03:41:53;;;;;;;14.65;9.15;;;20.70;55.60;;;;;;5065654;28;20207;-30
2023/09/07 03:44:25;;;;;;;10.52;9.43;;;20.70;55.70;;;;;;5084846;28;20198;-30
2023/09/07 03:46:52;;;;;;;10.07;8.55;;;20.70;55.70;;;;;;5072938;28;20206;-30
2023/09/07 03:49:22;;;;;;;12.75;9.02;;;20.60;55.70;;;;;;5056039;28;20210;-30
2023/09/07 03:51:51;;;;;;;11.48;9.20;;;20.60;55.70;;;;;;5048708;28;20209;-30
2023/09/07 03:54:20;;;;;;;10.68;9.30;;;20.60;55.80;;;;;;5082701;28;20610;-31
2023/09/07 03:56:48;;;;;;;14.75;9.55;;;20.60;55.80;;;;;;5082432;28;20205;-30
2023/09/07 03:59:17;;;;;;;11.60;8.90;;;20.60;55.80;;;;;;5083753;28;20226;-30
2023/09/07 04:01:46;;;;;;;11.05;9.20;;;20.50;55.80;;;;;;5084355;28;20239;-30
2023/09/07 04:04:18;;;;;;;10.85;8.70;;;20.50;55.90;;;;;;5050767;28;20684;-30
2023/09/07 04:06:49;;;;;;;10.45;9.35;;;20.50;56.00;;;;;;5082513;28;20654;-30
2023/09/07 04:09:16;;;;;;;11.60;9.55;;;20.50;56.00;;;;;;5066302;28;20198;-30
2023/09/07 04:11:46;;;;;;;14.98;9.60;;;20.40;56.00;;;;;;5084693;28;20211;-30
2023/09/07 04:14:13;;;;;;;10.93;9.68;;;20.40;56.00;;;;;;5082252;28;20287;-30
2023/09/07 04:16:42;;;;;;;12.43;9.13;;;20.40;56.10;;;;;;5066291;28;20294;-30
2023/09/07 04:19:10;;;;;;;11.27;9.43;;;20.40;56.70;;;;;;5064183;28;20575;-30
2023/09/07 04:21:38;;;;;;;12.98;9.52;;;20.30;56.10;;;;;;5062590;28;20210;-30
2023/09/07 04:24:08;;;;;;;11.32;9.13;;;20.30;56.10;;;;;;5086505;28;20222;-30
2023/09/07 04:26:37;;;;;;;11.90;9.15;;;20.30;56.20;;;;;;5084577;28;20831;-30
2023/09/07 04:29:07;;;;;;;11.45;9.70;;;20.30;56.20;;;;;;5085609;28;20652;-30
2023/09/07 04:31:37;;;;;;;12.40;9.27;;;20.30;56.20;;;;;;5085396;28;20604;-26
2023/09/07 04:34:04;;;;;;;10.65;9.43;;;20.30;56.30;;;;;;5079743;28;20774;-27
2023/09/07 04:36:31;;;;;;;11.15;9.80;;;20.20;56.30;;;;;;5066474;28;20856;-26
2023/09/07 04:38:59;;;;;;;11.55;9.07;;;20.20;56.30;;;;;;5033274;28;20301;-27
2023/09/07 04:41:26;;;;;;;13.30;9.52;;;20.20;56.30;;;;;;5065643;28;20225;-26
2023/09/07 04:43:57;;;;;;;13.45;9.35;;;20.20;56.40;;;;;;5084254;28;20257;-26
2023/09/07 04:46:29;;;;;;;13.65;10.13;;;20.20;56.40;;;;;;5081637;28;20611;-27
2023/09/07 04:48:56;;;;;;;12.38;9.90;;;20.10;56.40;;;;;;5082819;28;20733;-27
2023/09/07 04:51:26;;;;;;;12.68;9.80;;;20.10;56.40;;;;;;5070671;28;20219;-26
2023/09/07 04:53:53;;;;;;;12.57;9.57;;;20.10;56.50;;;;;;5072345;28;20960;-27
2023/09/07 04:56:21;;;;;;;13.43;9.63;;;20.10;56.50;;;;;;5043284;28;20301;-26
2023/09/07 04:58:51;;;;;;;12.88;9.85;;;20.00;56.60;;;;;;5071623;28;20688;-26
2023/09/07 05:01:19;;;;;;;18.23;9.65;;;20.00;56.60;;;;;;5063213;28;20239;-27
2023/09/07 05:03:46;;;;;;;30.02;11.05;;;20.00;56.60;;;;;;5078830;28;20228;-26
2023/09/07 05:06:15;;;;;;;19.30;11.05;;;20.00;56.70;;;;;;5076663;28;20199;-27
2023/09/07 05:08:47;;;;;;;12.38;9.63;;;20.00;56.70;;;;;;5078603;28;20213;-28
2023/09/07 05:11:14;;;;;;;13.88;10.68;;;20.00;56.70;;;;;;5065295;28;20203;-27
2023/09/07 05:13:43;;;;;;;28.98;11.40;;;20.00;56.80;;;;;;5079363;28;20217;-28
2023/09/07 05:16:11;;;;;;;28.60;10.98;;;20.00;56.80;;;;;;5074859;28;20679;-27
2023/09/07 05:18:38;;;;;;;18.00;9.75;;;20.00;56.80;;;;;;5085502;28;20207;-27
2023/09/07 05:21:17;;;;;;;14.00;10.05;;;19.90;56.80;;;;;;5083248;28;20203;-28
2023/09/07 05:23:47;;;;;;;38.47;12.35;;;19.90;56.90;;;;;;5078384;28;20225;-26
2023/09/07 05:26:14;;;;;;;21.75;11.02;;;19.90;56.90;;;;;;5041139;28;20219;-27
2023/09/07 05:28:41;;;;;;;31.15;11.45;;;19.90;57.50;;;;;;5083140;28;20199;-26
2023/09/07 05:31:13;;;;;;;20.75;10.60;;;19.90;57.00;;;;;;5056708;28;20212;-26
2023/09/07 05:33:43;;;;;;;15.27;9.52;;;19.90;57.00;;;;;;5067567;28;20219;-26
2023/09/07 05:36:13;;;;;;;16.45;9.95;;;19.90;57.00;;;;;;5077098;28;20214;-26
2023/09/07 05:38:42;;;;;;;14.40;10.50;;;19.90;57.10;;;;;;5083175;28;20275;-26
2023/09/07 05:41:09;;;;;;;12.50;10.10;;;19.90;57.10;;;;;;5068342;28;20227;-26
2023/09/07 05:43:36;;;;;;;16.55;10.07;;;19.80;57.10;;;;;;5052944;28;20333;-26
2023/09/07 05:46:06;;;;;;;17.95;10.25;;;19.80;57.10;;;;;;5068479;28;20207;-26
2023/09/07 05:48:38;;;;;;;15.10;9.27;;;19.80;57.10;;;;;;5065736;28;20548;-26
2023/09/07 05:51:07;;;;;;;14.52;9.68;;;19.80;57.20;;;;;;5047403;28;20223;-26
2023/09/07 05:53:41;;;;;;;12.60;9.30;;;19.80;57.30;;;;;;5073011;28;20909;-26
2023/09/07 05:56:09;;;;;;;16.42;10.70;;;19.80;57.30;;;;;;5070565;28;20250;-26
2023/09/07 05:58:40;;;;;;;17.13;10.18;;;19.80;57.30;;;;;;5064404;28;20265;-26
2023/09/07 06:01:10;;;;;;;14.82;9.60;;;19.80;57.30;;;;;;5074973;28;20235;-26
2023/09/07 06:03:41;;;;;;;19.38;10.80;;;19.80;57.40;;;;;;5061313;28;20238;-26
2023/09/07 06:06:10;;;;;;;14.05;9.90;;;19.80;57.40;;;;;;5063192;28;20206;-27
2023/09/07 06:08:38;;;;;;;17.10;10.32;;;19.80;57.40;;;;;;5050701;28;20211;-26
2023/09/07 06:11:05;;;;;;;20.60;10.45;;;19.80;57.50;;;;;;5056172;28;20199;-26
2023/09/07 06:13:34;;;;;;;16.38;10.40;;;19.80;57.50;;;;;;5060229;28;20302;-27
2023/09/07 06:16:04;;;;;;;16.58;11.30;;;19.70;57.50;;;;;;5076654;28;20216;-26
2023/09/07 06:18:32;;;;;;;24.60;11.32;;;19.80;57.60;;;;;;5068188;28;20744;-26
2023/09/07 06:20:59;;;;;;;18.77;11.85;;;19.80;57.70;;;;;;5078201;28;20209;-27
2023/09/07 06:23:26;;;;;;;20.17;10.88;;;19.80;57.70;;;;;;5077973;28;20215;-26
2023/09/07 06:25:56;;;;;;;18.58;10.95;;;19.80;57.70;;;;;;5063297;28;20207;-26
2023/09/07 06:28:23;;;;;;;21.63;11.60;;;19.80;57.70;;;;;;5063445;28;20196;-26
2023/09/07 06:30:53;;;;;;;17.45;11.05;;;19.80;57.80;;;;;;5032943;28;20677;-26
2023/09/07 06:33:25;;;;;;;17.45;11.93;;;19.80;57.80;;;;;;5068529;28;20214;-26
2023/09/07 06:35:57;;;;;;;18.77;11.98;;;19.80;57.90;;;;;;5076237;28;20592;-26
2023/09/07 06:38:26;;;;;;;17.27;11.30;;;19.80;57.80;;;;;;5069155;28;20583;-26
2023/09/07 06:40:58;;;;;;;17.52;11.40;;;19.90;57.90;;;;;;5088748;28;20246;-26
2023/09/07 06:43:25;;;;;;;14.93;11.10;;;19.90;58.60;;;;;;5070452;28;20611;-26
2023/09/07 06:45:53;;;;;;;14.60;12.25;;;19.90;57.90;;;;;;5077379;28;20204;-26
2023/09/07 06:48:21;;;;;;;19.17;11.30;;;20.00;58.00;;;;;;5068771;28;20557;-26
2023/09/07 06:50:50;;;;;;;20.33;11.30;;;20.00;58.00;;;;;;5041472;28;20210;-26
2023/09/07 06:53:17;;;;;;;13.38;10.15;;;20.00;58.00;;;;;;5074418;28;20282;-26
2023/09/07 06:55:57;;;;;;;13.18;9.50;;;20.10;58.00;;;;;;5084654;28;20669;-26
2023/09/07 06:58:27;;;;;;;14.25;10.75;;;20.10;58.10;;;;;;5082555;28;20679;-26
2023/09/07 07:00:58;;;;;;;16.63;10.75;;;20.20;58.10;;;;;;5080957;28;20246;-26
2023/09/07 07:03:28;;;;;;;13.07;10.70;;;20.20;58.10;;;;;;5052548;28;20246;-26
2023/09/07 07:05:56;;;;;;;12.57;10.15;;;20.20;58.10;;;;;;5086888;28;20191;-26
2023/09/07 07:08:23;;;;;;;14.57;9.77;;;20.30;58.10;;;;;;5069690;28;20264;-26
2023/09/07 07:10:55;;;;;;;13.57;9.60;;;20.40;58.10;;;;;;5076780;28;20684;-26
2023/09/07 07:13:22;;;;;;;14.27;8.98;;;20.40;58.20;;;;;;5037050;28;20199;-26
2023/09/07 07:15:49;;;;;;;16.90;9.43;;;20.50;58.20;;;;;;5067955;28;20636;-26
2023/09/07 07:18:17;;;;;;;10.75;7.93;;;20.50;58.20;;;;;;5082192;28;20596;-26
2023/09/07 07:20:44;;;;;;;15.35;7.13;;;20.60;58.80;;;;;;5083359;28;20329;-26
2023/09/07 07:23:12;;;;;;;13.02;7.18;;;20.60;58.20;;;;;;5077530;28;20699;-26
2023/09/07 07:25:42;;;;;;;20.55;7.03;;;20.70;58.20;;;;;;5066945;28;20224;-26
2023/09/07 07:28:10;;;;;;;13.48;6.80;;;20.70;58.10;;;;;;5066569;28;20199;-26
2023/09/07 07:30:40;;;;;;;12.50;6.85;;;20.80;58.10;;;;;;5066838;28;20195;-26
2023/09/07 07:33:11;;;;;;;8.88;6.30;;;20.90;58.10;;;;;;5080473;28;20248;-26
2023/09/07 07:35:39;;;;;;;11.98;6.72;;;20.90;58.10;;;;;;5072517;28;20334;-25
2023/09/07 07:38:14;;;;;;;7.40;5.68;;;21.00;58.20;;;;;;5087632;28;20270;-26
2023/09/07 07:40:42;;;;;;;11.18;6.22;;;21.00;58.20;;;;;;5069080;28;20624;-26
2023/09/07 07:43:10;;;;;;;8.88;5.60;;;21.10;58.20;;;;;;5085354;28;20219;-26
2023/09/07 07:45:38;;;;;;;8.50;4.95;;;21.10;58.20;;;;;;5085293;28;20249;-26
2023/09/07 07:48:07;;;;;;;10.55;6.15;;;21.20;58.10;;;;;;5086559;28;20207;-26
2023/09/07 07:50:44;;;;;;;10.95;5.97;;;21.30;58.20;;;;;;5066088;28;20291;-26
2023/09/07 07:53:14;;;;;;;12.00;6.45;;;21.30;58.20;;;;;;5083395;28;20697;-26
2023/09/07 07:55:44;;;;;;;11.68;5.38;;;21.40;58.30;;;;;;5082206;28;20198;-25
2023/09/07 07:58:11;;;;;;;9.50;5.55;;;21.40;58.20;;;;;;5073673;28;20239;-26
2023/09/07 08:00:43;;;;;;;6.00;4.88;;;21.50;58.10;;;;;;5063802;28;20618;-26
2023/09/07 08:03:10;;;;;;;10.00;5.70;;;21.50;58.20;;;;;;5080597;28;20235;-26
2023/09/07 08:05:39;;;;;;;9.25;5.18;;;21.60;58.20;;;;;;5063316;28;20199;-27
2023/09/07 08:08:10;;;;;;;9.40;5.57;;;21.60;58.20;;;;;;5071603;28;20963;-26
2023/09/07 08:10:41;;;;;;;8.88;5.47;;;21.70;58.10;;;;;;5060526;28;20699;-26
2023/09/07 08:13:11;;;;;;;7.78;4.97;;;21.70;58.10;;;;;;5077303;28;20203;-26
2023/09/07 08:15:43;;;;;;;6.03;5.05;;;21.70;58.10;;;;;;5067905;28;20204;-26
2023/09/07 08:18:13;;;;;;;5.93;5.05;;;21.80;58.20;;;;;;5067706;28;20293;-26
2023/09/07 08:20:41;;;;;;;5.20;4.70;;;21.90;58.10;;;;;;5080521;28;20322;-26
2023/09/07 08:23:10;;;;;;;6.03;4.68;;;21.90;58.10;;;;;;5076831;28;20241;-26
2023/09/07 08:25:44;;;;;;;8.20;5.25;;;21.90;58.10;;;;;;5064904;28;20211;-26
2023/09/07 08:28:12;;;;;;;6.82;4.57;;;22.00;58.10;;;;;;5077112;28;20321;-26
2023/09/07 08:30:42;;;;;;;7.50;4.97;;;22.10;58.10;;;;;;5063196;28;20635;-25
2023/09/07 08:33:09;;;;;;;6.05;4.88;;;22.10;58.10;;;;;;5077913;28;20217;-28
2023/09/07 08:35:43;;;;;;;6.13;4.68;;;22.20;58.10;;;;;;5083169;28;20218;-26
2023/09/07 08:38:11;;;;;;;7.03;5.22;;;22.20;58.00;;;;;;5076006;28;20608;-26
2023/09/07 08:40:42;;;;;;;7.35;4.43;;;22.30;58.00;;;;;;5084126;28;20677;-26
2023/09/07 08:43:14;;;;;;;5.60;4.68;;;22.30;58.00;;;;;;5078030;28;20226;-25
2023/09/07 08:45:59;;;;;;;8.90;5.20;;;22.40;58.00;;;;;;5044217;28;20203;-26
2023/09/07 08:48:30;;;;;;;12.95;4.53;;;22.50;58.00;;;;;;5084217;28;20301;-26
2023/09/07 08:51:00;;;;;;;8.18;4.50;;;22.50;58.00;;;;;;5049697;28;20237;-33
2023/09/07 08:53:32;;;;;;;7.10;4.45;;;22.60;57.90;;;;;;5049652;28;20290;-26
2023/09/07 08:56:02;;;;;;;10.73;4.20;;;22.60;58.00;;;;;;5077708;28;20236;-26
2023/09/07 08:58:31;;;;;;;38.92;8.65;;;22.70;58.00;;;;;;5069314;28;20202;-26
2023/09/07 09:00:59;;;;;;;15.38;5.75;;;22.70;58.00;;;;;;5066963;28;20354;-26
2023/09/07 09:03:36;;;;;;;9.60;4.25;;;22.80;57.90;;;;;;5047964;28;20288;-26
2023/09/07 09:06:05;;;;;;;10.15;4.80;;;22.80;58.00;;;;;;5048160;28;20663;-26
2023/09/07 09:08:52;;;;;;;12.05;4.80;;;22.90;58.00;;;;;;5066725;28;20580;-26
2023/09/07 09:11:23;;;;;;;11.88;4.50;;;22.90;57.90;;;;;;5065005;28;20211;-26
2023/09/07 09:13:56;;;;;;;8.43;4.30;;;23.00;57.80;;;;;;5065352;28;20214;-26
2023/09/07 09:16:23;;;;;;;9.00;4.30;;;23.10;57.90;;;;;;5071009;28;20194;-26
2023/09/07 09:18:52;;;;;;;7.18;4.20;;;23.10;57.80;;;;;;5065341;28;20249;-26
2023/09/07 09:21:24;;;;;;;5.35;3.75;;;23.20;57.90;;;;;;5082437;28;20572;-26
2023/09/07 09:24:00;;;;;;;12.05;4.55;;;23.20;57.90;;;;;;5056020;28;20298;-26
2023/09/07 09:26:32;;;;;;;8.98;4.13;;;23.30;57.80;;;;;;5064197;28;20203;-26
2023/09/07 09:29:00;;;;;;;7.25;3.92;;;23.30;57.70;;;;;;5054125;28;20269;-27
2023/09/07 09:31:34;;;;;;;7.70;3.92;;;23.40;57.80;;;;;;5066670;28;20322;-26
2023/09/07 09:34:02;;;;;;;7.07;3.63;;;23.40;57.60;;;;;;5085734;28;20203;-26
2023/09/07 09:36:34;;;;;;;9.45;3.72;;;23.50;57.70;;;;;;5065748;28;20202;-26
2023/09/07 09:39:07;;;;;;;9.85;4.25;;;23.50;57.60;;;;;;5081735;28;20214;-26
2023/09/07 09:41:38;;;;;;;5.32;3.72;;;23.60;57.60;;;;;;5077217;28;20236;-26
2023/09/07 09:44:08;;;;;;;6.28;3.65;;;23.60;57.60;;;;;;5078297;28;20658;-26
2023/09/07 09:46:36;;;;;;;7.00;4.28;;;23.70;57.50;;;;;;5047785;28;20203;-26
2023/09/07 09:49:11;;;;;;;6.15;3.80;;;23.80;58.20;;;;;;5046983;28;20231;-26
2023/09/07 09:51:39;;;;;;;9.52;4.03;;;23.80;57.50;;;;;;5047311;28;20195;-29
2023/09/07 09:54:10;;;;;;;10.23;3.90;;;23.90;57.50;;;;;;5049718;28;20203;-29
2023/09/07 09:56:41;;;;;;;8.07;4.30;;;23.90;57.50;;;;;;5057134;28;20221;-29
2023/09/07 09:59:11;;;;;;;5.55;3.40;;;24.00;57.50;;;;;;5066462;28;20416;-30
2023/09/07 10:01:44;;;;;;;5.15;3.20;;;24.00;57.40;;;;;;5086837;28;20227;-30
2023/09/07 10:04:14;;;;;;;4.82;3.67;;;24.00;57.40;;;;;;5067334;28;20225;-29
2023/09/07 10:06:54;;;;;;;4.43;3.45;;;24.10;57.30;;;;;;5079891;28;20213;-29
2023/09/07 10:09:22;;;;;;;5.93;3.60;;;24.20;57.30;;;;;;5068550;28;20290;-29
2023/09/07 10:11:53;;;;;;;4.88;3.63;;;24.20;57.10;;;;;;5068736;28;20206;-30
2023/09/07 10:14:21;;;;;;;5.90;3.47;;;24.30;57.20;;;;;;5069365;28;20519;-29
2023/09/07 10:16:52;;;;;;;4.22;3.33;;;24.30;57.20;;;;;;5048316;28;20294;-29
2023/09/07 10:19:21;;;;;;;3.97;3.22;;;24.40;57.20;;;;;;5050807;28;20231;-29
2023/09/07 10:21:55;;;;;;;6.03;3.38;;;24.40;57.10;;;;;;5043477;28;20200;-30
2023/09/07 10:24:39;;;;;;;8.07;3.70;;;24.50;57.20;;;;;;5079147;28;20711;-30
2023/09/07 10:27:08;;;;;;;4.78;3.92;;;24.60;57.10;;;;;;5075373;28;20198;-30
2023/09/07 10:29:59;;;;;;;3.20;2.85;;;24.60;57.20;;;;;;5067846;28;20589;-30
2023/09/07 10:32:40;;;;;;;6.60;4.00;;;24.60;57.10;;;;;;5064341;28;20249;-30
2023/09/07 10:35:22;;;;;;;6.07;4.05;;;24.70;57.20;;;;;;5067429;28;20219;-30
2023/09/07 10:37:49;;;;;;;5.00;3.58;;;24.80;57.20;;;;;;5055083;28;20248;-30
2023/09/07 10:40:22;;;;;;;3.80;3.38;;;24.80;57.10;;;;;;5072404;28;20234;-30
2023/09/07 10:42:49;;;;;;;10.23;3.88;;;24.90;57.20;;;;;;5034462;28;20768;-29
2023/09/07 10:45:24;;;;;;;8.00;3.70;;;25.00;57.10;;;;;;5077804;28;20384;-30
2023/09/07 10:47:51;;;;;;;5.63;3.30;;;25.00;57.00;;;;;;5065994;28;20695;-26
2023/09/07 10:50:21;;;;;;;4.93;3.40;;;25.00;56.90;;;;;;5065943;28;20224;-26
2023/09/07 10:52:49;;;;;;;5.93;3.30;;;25.10;57.00;;;;;;5041196;28;20302;-26
2023/09/07 10:55:16;;;;;;;5.65;3.22;;;25.10;56.90;;;;;;5050671;28;20269;-26
2023/09/07 10:57:45;;;;;;;7.07;3.58;;;25.20;56.90;;;;;;5085295;28;20733;-26
2023/09/07 11:00:17;;;;;;;4.85;3.45;;;25.20;56.80;;;;;;5063811;28;20221;-26
2023/09/07 11:02:46;;;;;;;3.95;3.22;;;25.30;56.80;;;;;;5076442;28;20239;-26
2023/09/07 11:05:18;;;;;;;4.50;3.53;;;25.30;56.80;;;;;;5053950;28;20582;-26
2023/09/07 11:07:45;;;;;;;9.55;3.45;;;25.40;56.80;;;;;;5053822;28;20207;-26
2023/09/07 11:10:15;;;;;;;6.85;3.28;;;25.40;56.70;;;;;;5067728;28;20734;-26
2023/09/07 11:12:42;;;;;;;17.67;4.43;;;25.50;56.80;;;;;;5067061;28;20676;-26
2023/09/07 11:15:12;;;;;;;5.32;3.55;;;25.50;56.70;;;;;;5074469;28;20207;-26
2023/09/07 11:17:39;;;;;;;5.13;3.60;;;25.60;56.60;;;;;;5065488;28;20219;-26
2023/09/07 11:20:07;;;;;;;4.75;3.35;;;25.60;56.60;;;;;;5066381;28;20443;-26
2023/09/07 11:22:40;;;;;;;7.82;3.28;;;25.70;56.60;;;;;;5073203;28;20203;-26
2023/09/07 11:25:27;;;;;;;4.22;3.65;;;25.70;56.60;;;;;;5050618;28;20330;-26
2023/09/07 11:27:59;;;;;;;4.88;3.58;;;25.80;56.20;;;;;;5076184;28;20246;-26
2023/09/07 11:30:29;;;;;;;5.57;3.72;;;25.80;56.50;;;;;;5077141;28;20603;-26
2023/09/07 11:33:09;;;;;;;4.88;3.50;;;25.90;56.50;;;;;;5065010;28;21063;-26
2023/09/07 11:35:41;;;;;;;6.05;3.88;;;25.90;56.40;;;;;;5065402;28;20322;-25
2023/09/07 11:38:12;;;;;;;5.30;3.65;;;25.90;56.50;;;;;;5075700;28;20341;-26
2023/09/07 11:40:40;;;;;;;5.22;3.35;;;26.00;56.40;;;;;;5066736;28;20300;-26
2023/09/07 11:43:07;;;;;;;9.15;3.75;;;26.10;56.50;;;;;;5049564;28;20302;-26
2023/09/07 11:45:34;;;;;;;4.75;4.00;;;26.10;56.40;;;;;;5078047;28;20315;-26
2023/09/07 11:48:04;;;;;;;4.32;3.72;;;26.20;56.50;;;;;;5075842;28;20191;-26
2023/09/07 11:50:34;;;;;;;9.73;3.92;;;26.20;56.30;;;;;;5083600;28;20195;-26
2023/09/07 11:53:04;;;;;;;4.05;3.45;;;26.30;56.40;;;;;;5081017;28;20203;-26
2023/09/07 11:55:31;;;;;;;4.72;3.75;;;26.30;56.40;;;;;;5066452;28;20199;-26
2023/09/07 11:57:59;;;;;;;7.88;3.97;;;26.40;56.40;;;;;;5063614;28;20222;-26
2023/09/07 12:00:30;;;;;;;5.85;3.47;;;26.40;56.40;;;;;;5082440;28;20279;-26
2023/09/07 12:03:00;;;;;;;8.43;3.83;;;26.40;56.30;;;;;;5071144;28;20223;-25
2023/09/07 12:05:30;;;;;;;5.32;3.53;;;26.50;56.20;;;;;;5065798;28;20635;-26
2023/09/07 12:08:02;;;;;;;15.02;4.40;;;26.60;56.40;;;;;;5071819;28;20211;-26
2023/09/07 12:10:32;;;;;;;6.60;3.97;;;26.60;56.20;;;;;;5056990;28;20229;-25
2023/09/07 12:13:05;;;;;;;4.28;3.67;;;26.60;56.10;;;;;;5075134;28;20234;-25
2023/09/07 12:15:33;;;;;;;6.45;3.53;;;26.70;56.10;;;;;;5052075;28;20231;-26
2023/09/07 12:18:00;;;;;;;5.53;3.90;;;26.80;56.20;;;;;;5083807;28;20252;-25
2023/09/07 12:20:30;;;;;;;6.07;3.80;;;26.80;55.90;;;;;;5066138;28;20226;-25
2023/09/07 12:22:57;;;;;;;7.40;4.20;;;26.80;56.10;;;;;;5049577;28;20199;-26
2023/09/07 12:25:27;;;;;;;10.32;4.13;;;26.90;56.00;;;;;;5035588;28;20238;-25
2023/09/07 12:27:54;;;;;;;5.45;3.85;;;26.90;56.10;;;;;;5060258;28;20206;-25
2023/09/07 12:30:22;;;;;;;5.60;3.65;;;27.00;56.10;;;;;;5065335;28;20207;-25
2023/09/07 12:32:51;;;;;;;6.03;3.75;;;27.00;56.20;;;;;;5077214;28;20246;-26
2023/09/07 12:35:19;;;;;;;5.20;4.03;;;27.10;56.00;;;;;;5074903;28;20214;-26
2023/09/07 12:37:50;;;;;;;7.45;4.30;;;27.10;55.90;;;;;;5072904;28;20221;-26
2023/09/07 12:40:17;;;;;;;9.50;4.30;;;27.20;55.70;;;;;;5073402;28;20199;-25
2023/09/07 12:42:48;;;;;;;8.40;4.07;;;27.20;55.80;;;;;;5057708;28;20296;-25
2023/09/07 12:45:15;;;;;;;5.35;3.90;;;27.20;55.80;;;;;;5047016;28;20306;-25
2023/09/07 12:47:45;;;;;;;8.50;4.28;;;27.30;55.70;;;;;;5077820;28;20209;-25
2023/09/07 12:50:14;;;;;;;4.55;4.10;;;27.30;55.90;;;;;;5078593;28;20206;-25
2023/09/07 12:52:43;;;;;;;6.75;4.22;;;27.40;55.90;;;;;;5074303;28;20195;-25